Aeroporto :
LOGIN :

Iscrizione | Disclaimer

   EN    FR    IT 

 










Sommario :    VFR   VFR Marginale   IFR   IFR Intensivo   IFR Molto Intensivo
Visibilità : 
Base nubi : 
>= 8 km
>= 3000ft
5 / 8 km
1000 / 3000 ft
1500m / 5 km
500 / 1000 ft
800 / 1500m
200 / 500 ft
< 800m
< 200 ft
Simboli :   Temporali  Nebbia  Neve Forte  Precipitazioni Forti  Vento > 20 kt
SIGMETs :   Varie  Temporali  Ghiacco  Turbolenza  Onda orograficha  Ceneri Vulcaniche






- Altitudine del aeroporto : 844 ft
- Codice IATA : OSR


LKMT - Ostrava-Mosnov

ULTIMO METAR :
  • 210500Z 03004KT 0800 R22/P2000N R04/P2000N FG OVC002 07/06 Q1013 NOSIG

METARs OBSOLETI :
  • 210430Z 04003KT 1200 R22/P2000N R04/P2000N -RA BR BKN003 07/06 Q1013 NOSIG
  • 210400Z 05003KT 1200 R22/P2000N R04/P2000N -RA BR OVC002 07/07 Q1013 NOSIG
  • 210330Z 02003KT 1200 R22/P2000N R04/P2000N -RA BR OVC002 07/07 Q1013 NOSIG
  • 210300Z 04003KT 1800 -RA BR OVC002 07/07 Q1013 NOSIG
  • 210230Z 03004KT 1800 -RA BR OVC002 07/07 Q1013 NOSIG

TAF AMD TAF LKMT
Valido dal 21 a 03 ore il 22 a 06 ore UTC


210325Z 2103/2206 VRB02KT 3500 BR OVC007
TEMPO 2103/2113 1800 -RA BR OVC002
BECMG 2113/2116 19010KT CAVOK



MetMap, La meteo Aeronautica in un colpo d'occhio ! - Copyright ORBIFLY Dicembre 2007 - Disclaimer

ORBIFLY MET'MAP TEAM :

Programmazione e sviluppo : Alexandra Zaïnal
Concezione e sviluppo : Baudouin d'Aumeries
Co-Programmazione e sviluppo : Marc-Olivier Méhu
Supporto tecnico e logistico : Manuel Goepfert
Aiuto per la traduzione : Arnaldo La Scala

Contatto : metmap@orbifly.com




FONTI E CREDITI :

   NOAA